sensor_id;sensor_type;location;lat;lon;timestamp;pressure;altitude;pressure_sealevel;temperature;humidity
67013;BME280;53926;47.406;19.188;2023-02-15T00:01:39;102052.19;;;-4.35;100.00
67013;BME280;53926;47.406;19.188;2023-02-15T00:04:07;102045.09;;;-4.28;100.00
67013;BME280;53926;47.406;19.188;2023-02-15T00:06:34;102054.19;;;-4.62;100.00
67013;BME280;53926;47.406;19.188;2023-02-15T00:09:02;102055.31;;;-4.68;100.00
67013;BME280;53926;47.406;19.188;2023-02-15T00:11:29;102050.97;;;-4.26;100.00
67013;BME280;53926;47.406;19.188;2023-02-15T00:14:31;102056.84;;;-4.45;100.00
67013;BME280;53926;47.406;19.188;2023-02-15T00:16:58;102055.78;;;-4.60;100.00
67013;BME280;53926;47.406;19.188;2023-02-15T00:19:26;102054.00;;;-4.58;100.00
67013;BME280;53926;47.406;19.188;2023-02-15T00:21:52;102051.50;;;-4.39;100.00
67013;BME280;53926;47.406;19.188;2023-02-15T00:24:19;102051.06;;;-4.49;100.00
67013;BME280;53926;47.406;19.188;2023-02-15T00:26:47;102055.31;;;-4.68;100.00
67013;BME280;53926;47.406;19.188;2023-02-15T00:29:15;102056.94;;;-4.46;100.00
67013;BME280;53926;47.406;19.188;2023-02-15T00:31:42;102054.81;;;-4.37;100.00
67013;BME280;53926;47.406;19.188;2023-02-15T00:34:13;102058.88;;;-4.53;100.00
67013;BME280;53926;47.406;19.188;2023-02-15T00:36:40;102062.16;;;-4.70;100.00
67013;BME280;53926;47.406;19.188;2023-02-15T00:39:07;102065.62;;;-4.52;100.00
67013;BME280;53926;47.406;19.188;2023-02-15T00:41:34;102063.84;;;-4.50;100.00
67013;BME280;53926;47.406;19.188;2023-02-15T00:44:01;102063.13;;;-4.73;100.00
67013;BME280;53926;47.406;19.188;2023-02-15T00:46:28;102058.66;;;-4.28;100.00
67013;BME280;53926;47.406;19.188;2023-02-15T00:48:54;102055.66;;;-4.57;100.00
67013;BME280;53926;47.406;19.188;2023-02-15T00:51:21;102041.62;;;-4.86;100.00
67013;BME280;53926;47.406;19.188;2023-02-15T00:53:48;102050.78;;;-4.82;100.00
67013;BME280;53926;47.406;19.188;2023-02-15T00:56:15;102052.09;;;-4.73;100.00
67013;BME280;53926;47.406;19.188;2023-02-15T00:58:42;102048.56;;;-4.90;100.00
67013;BME280;53926;47.406;19.188;2023-02-15T01:01:11;102058.94;;;-4.94;100.00
67013;BME280;53926;47.406;19.188;2023-02-15T01:03:39;102055.50;;;-4.73;100.00
67013;BME280;53926;47.406;19.188;2023-02-15T01:06:08;102048.38;;;-4.64;100.00
67013;BME280;53926;47.406;19.188;2023-02-15T01:08:35;102052.81;;;-4.70;100.00
67013;BME280;53926;47.406;19.188;2023-02-15T01:11:04;102054.91;;;-5.00;100.00
67013;BME280;53926;47.406;19.188;2023-02-15T01:13:31;102052.44;;;-5.01;100.00
67013;BME280;53926;47.406;19.188;2023-02-15T01:15:58;102049.69;;;-4.76;100.00
67013;BME280;53926;47.406;19.188;2023-02-15T01:18:26;102047.28;;;-5.00;100.00
67013;BME280;53926;47.406;19.188;2023-02-15T01:20:53;102044.63;;;-4.76;100.00
67013;BME280;53926;47.406;19.188;2023-02-15T01:23:20;102041.41;;;-5.00;100.00
67013;BME280;53926;47.406;19.188;2023-02-15T01:25:47;102037.00;;;-4.97;100.00
67013;BME280;53926;47.406;19.188;2023-02-15T01:28:14;102045.25;;;-4.92;100.00
67013;BME280;53926;47.406;19.188;2023-02-15T01:30:41;102044.59;;;-4.56;100.00
67013;BME280;53926;47.406;19.188;2023-02-15T01:33:08;102045.12;;;-4.68;100.00
67013;BME280;53926;47.406;19.188;2023-02-15T01:35:45;102048.03;;;-4.57;100.00
67013;BME280;53926;47.406;19.188;2023-02-15T01:38:15;102045.03;;;-4.46;100.00
67013;BME280;53926;47.406;19.188;2023-02-15T01:40:42;102043.03;;;-4.79;100.00
67013;BME280;53926;47.406;19.188;2023-02-15T01:43:11;102046.53;;;-4.81;100.00
67013;BME280;53926;47.406;19.188;2023-02-15T01:45:38;102033.66;;;-4.97;100.00
67013;BME280;53926;47.406;19.188;2023-02-15T01:48:08;102040.69;;;-5.04;100.00
67013;BME280;53926;47.406;19.188;2023-02-15T01:50:43;102036.56;;;-5.07;100.00
67013;BME280;53926;47.406;19.188;2023-02-15T01:53:45;102030.37;;;-4.60;100.00
67013;BME280;53926;47.406;19.188;2023-02-15T01:56:15;102031.72;;;-4.72;100.00
67013;BME280;53926;47.406;19.188;2023-02-15T01:58:44;102028.56;;;-4.97;100.00
67013;BME280;53926;47.406;19.188;2023-02-15T02:01:11;102022.72;;;-4.99;100.00
67013;BME280;53926;47.406;19.188;2023-02-15T02:04:00;102023.09;;;-4.88;100.00
67013;BME280;53926;47.406;19.188;2023-02-15T02:06:29;102017.25;;;-4.70;100.00
67013;BME280;53926;47.406;19.188;2023-02-15T02:08:57;102009.16;;;-4.59;100.00
67013;BME280;53926;47.406;19.188;2023-02-15T02:11:24;102011.28;;;-4.89;100.00
67013;BME280;53926;47.406;19.188;2023-02-15T02:13:52;102002.19;;;-4.95;100.00
67013;BME280;53926;47.406;19.188;2023-02-15T02:22:38;102007.28;;;-4.74;100.00
67013;BME280;53926;47.406;19.188;2023-02-15T02:28:05;102007.22;;;-4.93;100.00
67013;BME280;53926;47.406;19.188;2023-02-15T02:42:29;102006.16;;;-5.08;100.00
67013;BME280;53926;47.406;19.188;2023-02-15T02:50:08;102014.56;;;-5.28;100.00
67013;BME280;53926;47.406;19.188;2023-02-15T02:52:47;102015.09;;;-5.20;100.00
67013;BME280;53926;47.406;19.188;2023-02-15T02:58:18;102022.72;;;-5.20;100.00
67013;BME280;53926;47.406;19.188;2023-02-15T03:00:57;102023.53;;;-5.19;100.00
67013;BME280;53926;47.406;19.188;2023-02-15T03:03:34;102026.25;;;-5.24;100.00
67013;BME280;53926;47.406;19.188;2023-02-15T03:06:06;102017.31;;;-5.12;100.00
67013;BME280;53926;47.406;19.188;2023-02-15T03:08:40;102028.03;;;-5.26;100.00
67013;BME280;53926;47.406;19.188;2023-02-15T03:11:09;102030.25;;;-5.18;100.00
67013;BME280;53926;47.406;19.188;2023-02-15T03:13:37;102027.38;;;-5.31;100.00
67013;BME280;53926;47.406;19.188;2023-02-15T03:16:05;102031.31;;;-5.24;100.00
67013;BME280;53926;47.406;19.188;2023-02-15T03:18:56;102035.03;;;-5.11;100.00
67013;BME280;53926;47.406;19.188;2023-02-15T03:21:34;102026.19;;;-5.23;100.00
67013;BME280;53926;47.406;19.188;2023-02-15T03:24:28;102021.62;;;-5.14;100.00
67013;BME280;53926;47.406;19.188;2023-02-15T03:26:59;102019.81;;;-5.33;100.00
67013;BME280;53926;47.406;19.188;2023-02-15T03:29:29;102022.72;;;-5.42;100.00
67013;BME280;53926;47.406;19.188;2023-02-15T03:32:00;102039.50;;;-5.38;100.00
67013;BME280;53926;47.406;19.188;2023-02-15T03:34:29;102027.03;;;-5.44;100.00
67013;BME280;53926;47.406;19.188;2023-02-15T03:37:09;102027.91;;;-5.45;100.00
67013;BME280;53926;47.406;19.188;2023-02-15T03:39:56;102034.94;;;-5.30;100.00
67013;BME280;53926;47.406;19.188;2023-02-15T03:42:50;102028.66;;;-5.42;100.00
67013;BME280;53926;47.406;19.188;2023-02-15T03:45:25;102036.31;;;-5.43;100.00
67013;BME280;53926;47.406;19.188;2023-02-15T03:47:54;102042.97;;;-5.18;100.00
67013;BME280;53926;47.406;19.188;2023-02-15T03:50:30;102028.16;;;-5.51;100.00
67013;BME280;53926;47.406;19.188;2023-02-15T03:53:18;102033.66;;;-5.62;100.00
67013;BME280;53926;47.406;19.188;2023-02-15T03:55:53;102033.50;;;-5.80;100.00
67013;BME280;53926;47.406;19.188;2023-02-15T03:58:20;102018.84;;;-5.51;100.00
67013;BME280;53926;47.406;19.188;2023-02-15T04:01:15;102026.03;;;-5.62;100.00
67013;BME280;53926;47.406;19.188;2023-02-15T04:04:11;102033.84;;;-5.67;100.00
67013;BME280;53926;47.406;19.188;2023-02-15T04:06:41;102029.06;;;-5.75;100.00
67013;BME280;53926;47.406;19.188;2023-02-15T04:09:08;102025.00;;;-5.79;100.00
67013;BME280;53926;47.406;19.188;2023-02-15T04:11:53;102022.53;;;-5.80;100.00
67013;BME280;53926;47.406;19.188;2023-02-15T04:14:20;102023.47;;;-5.83;100.00
67013;BME280;53926;47.406;19.188;2023-02-15T04:17:09;102031.94;;;-5.84;100.00
67013;BME280;53926;47.406;19.188;2023-02-15T04:19:36;102023.16;;;-5.53;100.00
67013;BME280;53926;47.406;19.188;2023-02-15T04:22:21;102021.50;;;-5.54;100.00
67013;BME280;53926;47.406;19.188;2023-02-15T04:25:06;102024.88;;;-5.76;100.00
67013;BME280;53926;47.406;19.188;2023-02-15T04:27:37;102025.12;;;-5.82;100.00
67013;BME280;53926;47.406;19.188;2023-02-15T04:30:04;102028.75;;;-5.89;100.00
67013;BME280;53926;47.406;19.188;2023-02-15T04:32:31;102023.44;;;-5.61;100.00
67013;BME280;53926;47.406;19.188;2023-02-15T04:34:58;102025.47;;;-5.91;100.00
67013;BME280;53926;47.406;19.188;2023-02-15T04:37:25;102030.44;;;-5.88;100.00
67013;BME280;53926;47.406;19.188;2023-02-15T04:39:51;102031.41;;;-5.92;100.00
67013;BME280;53926;47.406;19.188;2023-02-15T04:42:18;102031.91;;;-6.04;100.00
67013;BME280;53926;47.406;19.188;2023-02-15T04:44:45;102035.44;;;-5.86;100.00
67013;BME280;53926;47.406;19.188;2023-02-15T04:47:11;102029.97;;;-5.98;100.00
67013;BME280;53926;47.406;19.188;2023-02-15T04:49:38;102035.72;;;-5.94;100.00
67013;BME280;53926;47.406;19.188;2023-02-15T04:52:05;102038.03;;;-5.88;100.00
67013;BME280;53926;47.406;19.188;2023-02-15T04:54:31;102042.56;;;-5.96;100.00
67013;BME280;53926;47.406;19.188;2023-02-15T04:56:58;102043.66;;;-6.02;100.00
67013;BME280;53926;47.406;19.188;2023-02-15T04:59:25;102042.81;;;-6.02;100.00
67013;BME280;53926;47.406;19.188;2023-02-15T05:01:51;102034.66;;;-5.88;100.00
67013;BME280;53926;47.406;19.188;2023-02-15T05:04:18;102044.34;;;-5.98;100.00
67013;BME280;53926;47.406;19.188;2023-02-15T05:06:45;102041.84;;;-5.78;100.00
67013;BME280;53926;47.406;19.188;2023-02-15T05:09:12;102041.50;;;-5.90;100.00
67013;BME280;53926;47.406;19.188;2023-02-15T05:11:39;102040.37;;;-6.05;100.00
67013;BME280;53926;47.406;19.188;2023-02-15T05:14:05;102029.09;;;-5.97;100.00
67013;BME280;53926;47.406;19.188;2023-02-15T05:16:32;102023.47;;;-6.05;100.00
67013;BME280;53926;47.406;19.188;2023-02-15T05:18:59;102030.53;;;-6.13;100.00
67013;BME280;53926;47.406;19.188;2023-02-15T05:21:26;102036.44;;;-5.90;100.00
67013;BME280;53926;47.406;19.188;2023-02-15T05:23:53;102032.28;;;-5.93;100.00
67013;BME280;53926;47.406;19.188;2023-02-15T05:26:22;102040.00;;;-5.96;100.00
67013;BME280;53926;47.406;19.188;2023-02-15T05:29:08;102044.16;;;-5.94;100.00
67013;BME280;53926;47.406;19.188;2023-02-15T05:31:35;102050.03;;;-5.93;100.00
67013;BME280;53926;47.406;19.188;2023-02-15T05:34:03;102051.38;;;-6.05;100.00
67013;BME280;53926;47.406;19.188;2023-02-15T05:36:29;102055.38;;;-5.99;100.00
67013;BME280;53926;47.406;19.188;2023-02-15T05:38:56;102055.78;;;-5.88;100.00
67013;BME280;53926;47.406;19.188;2023-02-15T05:41:23;102057.28;;;-6.04;100.00
67013;BME280;53926;47.406;19.188;2023-02-15T05:43:55;102061.47;;;-6.03;100.00
67013;BME280;53926;47.406;19.188;2023-02-15T05:46:21;102069.47;;;-5.92;100.00
67013;BME280;53926;47.406;19.188;2023-02-15T05:48:48;102066.41;;;-5.78;100.00
67013;BME280;53926;47.406;19.188;2023-02-15T05:51:15;102064.28;;;-5.67;100.00
67013;BME280;53926;47.406;19.188;2023-02-15T05:53:43;102076.91;;;-5.87;100.00
67013;BME280;53926;47.406;19.188;2023-02-15T05:56:10;102071.94;;;-5.90;100.00
67013;BME280;53926;47.406;19.188;2023-02-15T05:58:41;102066.00;;;-5.89;100.00
67013;BME280;53926;47.406;19.188;2023-02-15T06:01:11;102070.69;;;-5.79;100.00
67013;BME280;53926;47.406;19.188;2023-02-15T06:03:39;102076.34;;;-5.72;100.00
67013;BME280;53926;47.406;19.188;2023-02-15T06:06:06;102079.00;;;-5.75;100.00
67013;BME280;53926;47.406;19.188;2023-02-15T06:08:34;102076.22;;;-5.69;100.00
67013;BME280;53926;47.406;19.188;2023-02-15T06:11:02;102076.00;;;-5.63;100.00
67013;BME280;53926;47.406;19.188;2023-02-15T06:13:29;102079.97;;;-5.55;100.00
67013;BME280;53926;47.406;19.188;2023-02-15T06:15:57;102069.69;;;-5.52;100.00
67013;BME280;53926;47.406;19.188;2023-02-15T06:18:27;102068.91;;;-5.54;100.00
67013;BME280;53926;47.406;19.188;2023-02-15T06:20:54;102068.00;;;-5.31;100.00
67013;BME280;53926;47.406;19.188;2023-02-15T06:23:21;102074.75;;;-5.30;100.00
67013;BME280;53926;47.406;19.188;2023-02-15T06:25:48;102075.97;;;-5.18;100.00
67013;BME280;53926;47.406;19.188;2023-02-15T06:28:14;102084.91;;;-5.08;100.00
67013;BME280;53926;47.406;19.188;2023-02-15T06:30:41;102083.25;;;-4.89;100.00
67013;BME280;53926;47.406;19.188;2023-02-15T06:33:08;102080.81;;;-4.92;100.00
67013;BME280;53926;47.406;19.188;2023-02-15T06:35:35;102077.22;;;-4.86;100.00
67013;BME280;53926;47.406;19.188;2023-02-15T06:38:02;102078.25;;;-4.70;100.00
67013;BME280;53926;47.406;19.188;2023-02-15T06:40:28;102082.88;;;-4.59;100.00
67013;BME280;53926;47.406;19.188;2023-02-15T06:42:55;102081.63;;;-4.29;100.00
67013;BME280;53926;47.406;19.188;2023-02-15T06:45:22;102084.31;;;-4.14;100.00
67013;BME280;53926;47.406;19.188;2023-02-15T06:47:49;102079.62;;;-4.04;100.00
67013;BME280;53926;47.406;19.188;2023-02-15T06:50:16;102077.37;;;-3.91;100.00
67013;BME280;53926;47.406;19.188;2023-02-15T06:52:43;102084.41;;;-3.77;100.00
67013;BME280;53926;47.406;19.188;2023-02-15T06:55:09;102080.78;;;-3.54;100.00
67013;BME280;53926;47.406;19.188;2023-02-15T06:57:36;102086.12;;;-3.41;100.00
67013;BME280;53926;47.406;19.188;2023-02-15T07:00:04;102089.38;;;-3.20;100.00
67013;BME280;53926;47.406;19.188;2023-02-15T07:02:31;102093.59;;;-3.01;100.00
67013;BME280;53926;47.406;19.188;2023-02-15T07:04:58;102085.47;;;-2.75;100.00
67013;BME280;53926;47.406;19.188;2023-02-15T07:07:25;102083.25;;;-2.63;100.00
67013;BME280;53926;47.406;19.188;2023-02-15T07:09:52;102080.50;;;-2.43;100.00
67013;BME280;53926;47.406;19.188;2023-02-15T07:12:18;102088.28;;;-2.12;100.00
67013;BME280;53926;47.406;19.188;2023-02-15T07:15:04;102086.47;;;-1.94;100.00
67013;BME280;53926;47.406;19.188;2023-02-15T07:17:33;102085.09;;;-1.84;100.00
67013;BME280;53926;47.406;19.188;2023-02-15T07:20:04;102090.09;;;-1.67;100.00
67013;BME280;53926;47.406;19.188;2023-02-15T07:22:31;102092.00;;;-1.38;100.00
67013;BME280;53926;47.406;19.188;2023-02-15T07:25:04;102091.41;;;-1.28;100.00
67013;BME280;53926;47.406;19.188;2023-02-15T07:27:32;102084.75;;;-1.16;100.00
67013;BME280;53926;47.406;19.188;2023-02-15T07:29:59;102078.84;;;-1.02;100.00
67013;BME280;53926;47.406;19.188;2023-02-15T07:32:31;102070.66;;;-0.93;100.00
67013;BME280;53926;47.406;19.188;2023-02-15T07:34:58;102079.81;;;-0.74;100.00
67013;BME280;53926;47.406;19.188;2023-02-15T07:37:29;102081.47;;;-0.59;100.00
67013;BME280;53926;47.406;19.188;2023-02-15T07:40:16;102071.91;;;-0.55;100.00
67013;BME280;53926;47.406;19.188;2023-02-15T07:42:51;102082.69;;;-0.50;100.00
67013;BME280;53926;47.406;19.188;2023-02-15T07:45:42;102078.22;;;-0.32;100.00
67013;BME280;53926;47.406;19.188;2023-02-15T07:48:10;102075.19;;;-0.24;100.00
67013;BME280;53926;47.406;19.188;2023-02-15T07:51:01;102081.28;;;0.02;100.00
67013;BME280;53926;47.406;19.188;2023-02-15T07:53:49;102075.78;;;0.08;100.00
67013;BME280;53926;47.406;19.188;2023-02-15T07:56:38;102080.19;;;0.33;100.00
67013;BME280;53926;47.406;19.188;2023-02-15T07:59:25;102070.25;;;0.56;100.00
67013;BME280;53926;47.406;19.188;2023-02-15T08:02:13;102071.22;;;0.94;100.00
67013;BME280;53926;47.406;19.188;2023-02-15T08:04:43;102070.31;;;1.72;100.00
67013;BME280;53926;47.406;19.188;2023-02-15T08:07:09;102068.66;;;2.08;100.00
67013;BME280;53926;47.406;19.188;2023-02-15T08:09:36;102061.41;;;2.50;100.00
67013;BME280;53926;47.406;19.188;2023-02-15T08:12:03;102058.94;;;2.73;100.00
67013;BME280;53926;47.406;19.188;2023-02-15T08:14:30;102064.91;;;3.65;100.00
67013;BME280;53926;47.406;19.188;2023-02-15T08:17:00;102059.28;;;3.49;100.00
67013;BME280;53926;47.406;19.188;2023-02-15T08:19:30;102057.31;;;5.45;100.00
67013;BME280;53926;47.406;19.188;2023-02-15T08:22:01;102052.72;;;5.59;100.00
67013;BME280;53926;47.406;19.188;2023-02-15T08:24:29;102054.88;;;6.82;100.00
67013;BME280;53926;47.406;19.188;2023-02-15T08:26:57;102054.84;;;7.95;100.00
67013;BME280;53926;47.406;19.188;2023-02-15T08:29:27;102046.25;;;8.92;97.43
67013;BME280;53926;47.406;19.188;2023-02-15T08:31:56;102042.75;;;8.57;100.00
67013;BME280;53926;47.406;19.188;2023-02-15T08:34:25;102048.00;;;10.69;88.64
67013;BME280;53926;47.406;19.188;2023-02-15T08:36:51;102044.06;;;10.98;82.88
67013;BME280;53926;47.406;19.188;2023-02-15T08:39:18;102048.06;;;9.69;76.65
67013;BME280;53926;47.406;19.188;2023-02-15T08:41:46;102046.50;;;11.00;82.12
67013;BME280;53926;47.406;19.188;2023-02-15T08:44:18;102046.81;;;12.07;81.73
67013;BME280;53926;47.406;19.188;2023-02-15T08:46:46;102040.16;;;12.43;63.95
67013;BME280;53926;47.406;19.188;2023-02-15T08:49:19;102043.91;;;10.83;65.10
67013;BME280;53926;47.406;19.188;2023-02-15T08:51:46;102043.81;;;11.24;64.96
67013;BME280;53926;47.406;19.188;2023-02-15T08:54:15;102039.09;;;12.14;66.61
67013;BME280;53926;47.406;19.188;2023-02-15T08:56:43;102031.28;;;11.20;64.53
67013;BME280;53926;47.406;19.188;2023-02-15T08:59:21;102033.84;;;11.59;68.50
67013;BME280;53926;47.406;19.188;2023-02-15T09:01:49;102037.22;;;12.23;59.78
67013;BME280;53926;47.406;19.188;2023-02-15T09:04:16;102043.63;;;10.45;65.52
67013;BME280;53926;47.406;19.188;2023-02-15T09:06:45;102036.97;;;12.56;59.68
67013;BME280;53926;47.406;19.188;2023-02-15T09:09:14;102033.81;;;13.86;52.12
67013;BME280;53926;47.406;19.188;2023-02-15T09:11:43;102029.66;;;14.42;54.07
67013;BME280;53926;47.406;19.188;2023-02-15T09:14:13;102042.41;;;15.15;49.42
67013;BME280;53926;47.406;19.188;2023-02-15T09:16:42;102034.50;;;14.45;51.69
67013;BME280;53926;47.406;19.188;2023-02-15T09:19:11;102045.16;;;12.52;52.78
67013;BME280;53926;47.406;19.188;2023-02-15T09:21:38;102039.25;;;13.03;51.63
67013;BME280;53926;47.406;19.188;2023-02-15T09:24:10;102036.97;;;13.45;50.75
67013;BME280;53926;47.406;19.188;2023-02-15T09:26:41;102036.69;;;13.55;49.78
67013;BME280;53926;47.406;19.188;2023-02-15T09:29:08;102036.44;;;12.60;53.01
67013;BME280;53926;47.406;19.188;2023-02-15T09:31:54;102044.44;;;12.21;53.69
67013;BME280;53926;47.406;19.188;2023-02-15T09:34:22;102030.13;;;12.84;52.17
67013;BME280;53926;47.406;19.188;2023-02-15T09:36:50;102034.09;;;11.02;57.77
67013;BME280;53926;47.406;19.188;2023-02-15T09:39:22;102034.53;;;11.53;56.23
67013;BME280;53926;47.406;19.188;2023-02-15T10:28:20;101997.75;;;13.88;44.95
67013;BME280;53926;47.406;19.188;2023-02-15T10:30:51;101997.88;;;12.77;47.71
67013;BME280;53926;47.406;19.188;2023-02-15T10:33:39;101990.38;;;13.04;47.81
67013;BME280;53926;47.406;19.188;2023-02-15T10:38:40;101981.16;;;13.81;44.65
67013;BME280;53926;47.406;19.188;2023-02-15T10:53:49;101989.53;;;15.25;40.59
67013;BME280;53926;47.406;19.188;2023-02-15T10:58:47;101986.09;;;18.07;35.38
67013;BME280;53926;47.406;19.188;2023-02-15T11:01:18;101987.59;;;16.74;37.33
67013;BME280;53926;47.406;19.188;2023-02-15T11:06:57;101978.94;;;17.19;36.36
67013;BME280;53926;47.406;19.188;2023-02-15T11:09:38;101971.16;;;17.37;35.98
67013;BME280;53926;47.406;19.188;2023-02-15T11:12:13;101968.00;;;15.49;39.53
67013;BME280;53926;47.406;19.188;2023-02-15T11:14:50;101967.84;;;11.27;50.02
67013;BME280;53926;47.406;19.188;2023-02-15T11:17:28;101959.75;;;13.19;47.76
67013;BME280;53926;47.406;19.188;2023-02-15T11:20:25;101959.00;;;15.85;39.97
67013;BME280;53926;47.406;19.188;2023-02-15T11:22:54;101951.72;;;15.81;38.73
67013;BME280;53926;47.406;19.188;2023-02-15T11:25:30;101950.53;;;15.83;38.79
67013;BME280;53926;47.406;19.188;2023-02-15T11:27:58;101949.81;;;16.55;38.15
67013;BME280;53926;47.406;19.188;2023-02-15T11:30:32;101945.78;;;15.38;40.58
67013;BME280;53926;47.406;19.188;2023-02-15T11:33:04;101944.12;;;15.31;40.63
67013;BME280;53926;47.406;19.188;2023-02-15T11:35:40;101940.97;;;15.69;40.02
67013;BME280;53926;47.406;19.188;2023-02-15T11:38:16;101931.91;;;16.25;39.66
67013;BME280;53926;47.406;19.188;2023-02-15T11:41:02;101928.41;;;17.03;37.55
67013;BME280;53926;47.406;19.188;2023-02-15T11:43:41;101926.09;;;16.75;36.87
67013;BME280;53926;47.406;19.188;2023-02-15T11:46:11;101925.13;;;17.14;37.39
67013;BME280;53926;47.406;19.188;2023-02-15T11:48:39;101924.78;;;15.25;39.30
67013;BME280;53926;47.406;19.188;2023-02-15T11:51:11;101926.28;;;16.87;37.44
67013;BME280;53926;47.406;19.188;2023-02-15T11:53:40;101918.91;;;17.02;36.24
67013;BME280;53926;47.406;19.188;2023-02-15T11:56:14;101923.25;;;15.98;38.87
67013;BME280;53926;47.406;19.188;2023-02-15T12:01:14;101910.28;;;16.88;37.60
67013;BME280;53926;47.406;19.188;2023-02-15T12:06:27;101910.78;;;17.42;35.54
67013;BME280;53926;47.406;19.188;2023-02-15T12:11:49;101894.94;;;17.99;34.15
67013;BME280;53926;47.406;19.188;2023-02-15T12:14:15;101891.03;;;17.77;35.05
67013;BME280;53926;47.406;19.188;2023-02-15T12:16:48;101898.19;;;17.69;35.08
67013;BME280;53926;47.406;19.188;2023-02-15T12:19:37;101891.44;;;16.91;36.47
67013;BME280;53926;47.406;19.188;2023-02-15T12:22:18;101889.69;;;16.72;36.83
67013;BME280;53926;47.406;19.188;2023-02-15T12:24:47;101887.16;;;18.04;34.38
67013;BME280;53926;47.406;19.188;2023-02-15T12:27:21;101885.66;;;17.08;36.11
67013;BME280;53926;47.406;19.188;2023-02-15T12:29:59;101885.59;;;17.21;35.08
67013;BME280;53926;47.406;19.188;2023-02-15T12:32:33;101881.34;;;15.23;40.08
67013;BME280;53926;47.406;19.188;2023-02-15T12:35:08;101870.81;;;16.36;37.18
67013;BME280;53926;47.406;19.188;2023-02-15T12:37:35;101872.72;;;15.82;38.83
67013;BME280;53926;47.406;19.188;2023-02-15T12:40:20;101869.78;;;16.31;37.71
67013;BME280;53926;47.406;19.188;2023-02-15T12:42:47;101867.03;;;16.19;37.63
67013;BME280;53926;47.406;19.188;2023-02-15T12:45:29;101862.12;;;16.36;38.40
67013;BME280;53926;47.406;19.188;2023-02-15T12:48:18;101860.13;;;16.18;38.12
67013;BME280;53926;47.406;19.188;2023-02-15T12:50:47;101858.53;;;16.10;38.08
67013;BME280;53926;47.406;19.188;2023-02-15T12:53:31;101856.97;;;13.40;43.05
67013;BME280;53926;47.406;19.188;2023-02-15T12:56:01;101854.66;;;14.09;41.74
67013;BME280;53926;47.406;19.188;2023-02-15T12:58:33;101848.03;;;13.13;44.70
67013;BME280;53926;47.406;19.188;2023-02-15T13:03:36;101838.69;;;13.97;42.44
67013;BME280;53926;47.406;19.188;2023-02-15T13:06:05;101836.28;;;14.79;41.65
67013;BME280;53926;47.406;19.188;2023-02-15T13:08:49;101828.19;;;14.32;41.62
67013;BME280;53926;47.406;19.188;2023-02-15T13:11:26;101843.19;;;13.32;44.53
67013;BME280;53926;47.406;19.188;2023-02-15T13:13:59;101836.31;;;14.44;42.20
67013;BME280;53926;47.406;19.188;2023-02-15T13:16:36;101830.19;;;13.60;44.04
67013;BME280;53926;47.406;19.188;2023-02-15T13:19:10;101830.22;;;14.85;41.49
67013;BME280;53926;47.406;19.188;2023-02-15T13:21:41;101819.81;;;14.08;42.98
67013;BME280;53926;47.406;19.188;2023-02-15T13:24:24;101820.91;;;14.27;42.25
67013;BME280;53926;47.406;19.188;2023-02-15T13:26:56;101813.53;;;13.03;45.15
67013;BME280;53926;47.406;19.188;2023-02-15T13:29:43;101810.16;;;11.91;48.03
67013;BME280;53926;47.406;19.188;2023-02-15T13:32:25;101814.22;;;10.63;53.27
67013;BME280;53926;47.406;19.188;2023-02-15T13:34:58;101814.19;;;11.41;50.94
67013;BME280;53926;47.406;19.188;2023-02-15T13:52:13;101804.13;;;12.50;48.19
67013;BME280;53926;47.406;19.188;2023-02-15T14:00:32;101809.94;;;11.02;52.56
67013;BME280;53926;47.406;19.188;2023-02-15T14:03:18;101801.69;;;11.74;49.65
67013;BME280;53926;47.406;19.188;2023-02-15T14:12:35;101803.84;;;11.09;53.07
67013;BME280;53926;47.406;19.188;2023-02-15T14:15:23;101797.09;;;11.61;51.74
67013;BME280;53926;47.406;19.188;2023-02-15T14:29:51;101803.00;;;10.63;53.51
67013;BME280;53926;47.406;19.188;2023-02-15T14:32:23;101797.34;;;11.05;52.49
67013;BME280;53926;47.406;19.188;2023-02-15T14:34:55;101799.91;;;10.59;53.79
67013;BME280;53926;47.406;19.188;2023-02-15T14:43:42;101813.13;;;9.19;59.24
67013;BME280;53926;47.406;19.188;2023-02-15T14:56:44;101792.19;;;7.48;67.98
67013;BME280;53926;47.406;19.188;2023-02-15T15:01:38;101790.81;;;7.00;71.79
67013;BME280;53926;47.406;19.188;2023-02-15T15:04:08;101791.25;;;6.95;72.82
67013;BME280;53926;47.406;19.188;2023-02-15T15:06:38;101797.31;;;6.86;73.40
67013;BME280;53926;47.406;19.188;2023-02-15T15:09:18;101792.03;;;6.78;74.09
67013;BME280;53926;47.406;19.188;2023-02-15T15:11:50;101790.34;;;6.69;75.13
67013;BME280;53926;47.406;19.188;2023-02-15T15:17:02;101791.28;;;6.40;78.31
67013;BME280;53926;47.406;19.188;2023-02-15T15:22:23;101789.31;;;6.14;81.46
67013;BME280;53926;47.406;19.188;2023-02-15T15:25:07;101780.25;;;6.00;82.62
67013;BME280;53926;47.406;19.188;2023-02-15T15:40:46;101767.81;;;5.27;90.77
67013;BME280;53926;47.406;19.188;2023-02-15T15:46:42;101772.97;;;4.98;93.36
67013;BME280;53926;47.406;19.188;2023-02-15T15:49:19;101768.75;;;4.97;93.01
67013;BME280;53926;47.406;19.188;2023-02-15T15:51:46;101771.44;;;4.86;94.73
67013;BME280;53926;47.406;19.188;2023-02-15T15:54:22;101772.34;;;4.65;96.33
67013;BME280;53926;47.406;19.188;2023-02-15T15:57:01;101768.81;;;4.56;98.03
67013;BME280;53926;47.406;19.188;2023-02-15T15:59:31;101775.06;;;4.23;99.51
67013;BME280;53926;47.406;19.188;2023-02-15T16:02:11;101766.16;;;4.06;100.00
67013;BME280;53926;47.406;19.188;2023-02-15T16:04:39;101764.84;;;3.69;100.00
67013;BME280;53926;47.406;19.188;2023-02-15T16:12:38;101763.84;;;3.07;100.00